Time;durP1;ratioP1;P1;durP2;ratioP2;P2;SDS_P1;SDS_P2;PMS_P1;PMS_P2;Temp;Humidity;BMP_temperature;BMP_pressure;BME280_temperature;BME280_humidity;BME280_pressure;Samples;Min_cycle;Max_cycle;Signal;HPM_P1;HPM_P2
2022/04/28 00:00:42;;;;;;;2.10;2.10;;;18.80;65.30;;;;;;5150548;27;43968;-73
2022/04/28 00:03:10;;;;;;;2.40;2.40;;;18.70;65.30;;;;;;5150314;27;43476;-72
2022/04/28 00:05:40;;;;;;;2.40;2.40;;;18.70;65.70;;;;;;5150778;27;44041;-72
2022/04/28 00:08:09;;;;;;;2.40;2.40;;;18.80;65.80;;;;;;5150143;27;44182;-72
2022/04/28 00:10:37;;;;;;;2.30;2.30;;;19.00;65.40;;;;;;5149943;27;44157;-72
2022/04/28 00:13:05;;;;;;;2.30;2.30;;;19.20;65.00;;;;;;5150030;27;43860;-73
2022/04/28 00:15:33;;;;;;;2.47;2.47;;;19.30;64.40;;;;;;5149860;27;44031;-73
2022/04/28 00:18:01;;;;;;;2.10;2.10;;;19.40;64.00;;;;;;5150069;27;44008;-72
2022/04/28 00:20:29;;;;;;;2.40;2.40;;;19.40;64.20;;;;;;5149043;27;44073;-73
2022/04/28 00:22:58;;;;;;;2.67;2.60;;;19.30;63.80;;;;;;5150054;27;43916;-72
2022/04/28 00:25:26;;;;;;;2.20;2.20;;;19.30;63.90;;;;;;5149816;27;43910;-73
2022/04/28 00:27:55;;;;;;;2.30;2.30;;;19.20;64.00;;;;;;5149711;27;43945;-73
2022/04/28 00:30:23;;;;;;;2.30;2.30;;;19.10;64.30;;;;;;5148917;27;44361;-72
2022/04/28 00:32:51;;;;;;;2.30;2.30;;;19.00;64.40;;;;;;5148942;27;43966;-74
2022/04/28 00:35:18;;;;;;;2.67;2.57;;;18.90;64.60;;;;;;5149360;27;44056;-73
2022/04/28 00:37:46;;;;;;;2.53;2.43;;;18.90;64.70;;;;;;5130871;27;45763;-73
2022/04/28 00:40:16;;;;;;;2.37;2.37;;;18.90;65.50;;;;;;5148921;27;43911;-73
2022/04/28 00:42:44;;;;;;;2.40;2.40;;;18.90;65.40;;;;;;5130747;27;44054;-73
2022/04/28 00:45:11;;;;;;;2.40;2.40;;;19.10;65.20;;;;;;5131017;27;43979;-73
2022/04/28 00:50:40;;;;;;;2.50;2.43;;;19.10;65.20;;;;;;5148872;27;43648;-72
2022/04/28 00:53:10;;;;;;;2.10;2.10;;;19.10;64.40;;;;;;5149338;27;43357;-73
2022/04/28 00:55:39;;;;;;;2.37;2.37;;;19.00;64.40;;;;;;5130926;27;43556;-72
2022/04/28 00:58:07;;;;;;;2.30;2.30;;;18.90;64.60;;;;;;5130171;27;44322;-73
2022/04/28 01:00:35;;;;;;;2.37;2.37;;;18.90;64.80;;;;;;5129908;27;44081;-73
2022/04/28 01:03:03;;;;;;;2.30;2.30;;;18.80;64.90;;;;;;5149110;27;43982;-73
2022/04/28 01:05:32;;;;;;;2.43;2.43;;;18.80;65.00;;;;;;5148856;27;43938;-72
2022/04/28 01:08:00;;;;;;;2.40;2.40;;;18.80;65.20;;;;;;5130300;27;45771;-73
2022/04/28 01:10:28;;;;;;;2.50;2.40;;;18.80;65.30;;;;;;5129357;27;45411;-73
2022/04/28 01:12:57;;;;;;;2.50;2.50;;;18.70;65.60;;;;;;5130180;27;43993;-72
2022/04/28 01:15:25;;;;;;;2.33;2.33;;;18.80;65.70;;;;;;5129818;27;43967;-74
2022/04/28 01:17:53;;;;;;;2.60;2.60;;;19.00;65.40;;;;;;5129714;27;44091;-72
2022/04/28 01:20:22;;;;;;;2.27;2.27;;;19.20;65.00;;;;;;5129755;27;43723;-72
2022/04/28 01:22:51;;;;;;;2.40;2.40;;;19.30;64.20;;;;;;5129945;27;44066;-73
2022/04/28 01:25:19;;;;;;;2.40;2.40;;;19.50;63.90;;;;;;5130162;27;44183;-73
2022/04/28 01:27:47;;;;;;;2.40;2.40;;;19.50;63.70;;;;;;5148727;27;43927;-72
2022/04/28 01:30:15;;;;;;;2.43;2.43;;;19.40;63.70;;;;;;5129410;27;43950;-72
2022/04/28 01:32:52;;;;;;;2.17;2.17;;;19.30;64.50;;;;;;5129744;27;43885;-73
2022/04/28 01:35:20;;;;;;;2.20;2.20;;;19.20;64.00;;;;;;5129448;27;43957;-73
2022/04/28 01:37:48;;;;;;;2.30;2.30;;;19.10;64.30;;;;;;5148795;27;43907;-73
2022/04/28 01:40:20;;;;;;;2.40;2.40;;;19.00;64.40;;;;;;5128934;27;43863;-72
2022/04/28 01:42:48;;;;;;;2.30;2.30;;;18.90;64.60;;;;;;5129330;27;43896;-73
2022/04/28 01:45:18;;;;;;;2.40;2.40;;;18.90;64.80;;;;;;5129421;27;44314;-74
2022/04/28 01:48:15;;;;;;;2.70;2.60;;;18.90;65.40;;;;;;5134177;27;45273;-73
2022/04/28 01:56:53;;;;;;;2.50;2.50;;;19.20;64.60;;;;;;5130019;27;43867;-72
2022/04/28 01:59:47;;;;;;;2.50;2.40;;;19.10;64.40;;;;;;5126466;27;45073;-73
2022/04/28 02:02:34;;;;;;;2.30;2.30;;;19.00;64.30;;;;;;5144286;27;43837;-72
2022/04/28 02:05:02;;;;;;;2.40;2.30;;;19.00;64.60;;;;;;5129225;27;44025;-73
2022/04/28 02:07:30;;;;;;;2.40;2.40;;;18.90;64.70;;;;;;5129216;27;44092;-73
2022/04/28 02:09:58;;;;;;;2.27;2.27;;;18.90;64.90;;;;;;5129642;27;45468;-73
2022/04/28 02:12:28;;;;;;;2.30;2.30;;;18.80;65.00;;;;;;5121915;27;44044;-72
2022/04/28 02:15:16;;;;;;;2.43;2.43;;;18.80;65.10;;;;;;5100407;27;44054;-73
2022/04/28 02:18:03;;;;;;;2.50;2.50;;;18.70;65.20;;;;;;5145350;27;43970;-73
2022/04/28 02:20:31;;;;;;;2.63;2.63;;;18.70;65.30;;;;;;5128480;27;43937;-73
2022/04/28 02:22:59;;;;;;;2.60;2.57;;;18.70;65.60;;;;;;5147768;27;43910;-73
2022/04/28 02:25:29;;;;;;;2.17;2.17;;;18.90;65.50;;;;;;5128734;27;44033;-72
2022/04/28 02:28:00;;;;;;;2.20;2.20;;;19.00;65.10;;;;;;5129288;27;44366;-73
2022/04/28 02:30:27;;;;;;;2.73;2.70;;;19.20;64.60;;;;;;5128293;27;46576;-72
2022/04/28 02:33:10;;;;;;;2.57;2.53;;;19.30;64.10;;;;;;5129034;27;44445;-73
2022/04/28 02:35:52;;;;;;;2.67;2.50;;;19.30;64.60;;;;;;5129024;27;44029;-72
2022/04/28 02:38:20;;;;;;;2.20;2.20;;;19.30;63.80;;;;;;5128753;27;44008;-72
2022/04/28 02:40:49;;;;;;;2.53;2.37;;;19.20;64.60;;;;;;5128849;27;45520;-73
2022/04/28 02:43:19;;;;;;;2.57;2.57;;;19.10;64.00;;;;;;5128290;27;44875;-73
2022/04/28 02:45:55;;;;;;;2.50;2.50;;;19.00;64.20;;;;;;5128930;27;44043;-72
2022/04/28 02:48:29;;;;;;;2.10;2.10;;;18.90;65.10;;;;;;5128385;27;44013;-73
2022/04/28 02:50:57;;;;;;;2.53;2.43;;;18.90;64.60;;;;;;5128851;27;43908;-72
2022/04/28 02:53:25;;;;;;;2.50;2.50;;;18.90;64.80;;;;;;5127957;27;43363;-73
2022/04/28 02:55:53;;;;;;;2.47;2.47;;;18.80;65.30;;;;;;5131819;27;43995;-73
2022/04/28 02:58:23;;;;;;;2.63;2.60;;;18.90;65.30;;;;;;5132105;27;43453;-73
2022/04/28 03:00:51;;;;;;;2.50;2.50;;;19.00;64.90;;;;;;5151449;27;43858;-72
2022/04/28 03:03:18;;;;;;;2.27;2.27;;;19.10;64.60;;;;;;5131327;27;43988;-73
2022/04/28 03:11:17;;;;;;;2.33;2.33;;;19.00;64.30;;;;;;5131899;27;46523;-73
2022/04/28 03:13:47;;;;;;;2.23;2.23;;;18.90;64.50;;;;;;5151123;27;43915;-72
2022/04/28 03:16:15;;;;;;;2.33;2.33;;;18.90;64.70;;;;;;5150916;27;44098;-72
2022/04/28 03:19:00;;;;;;;2.27;2.27;;;18.80;64.80;;;;;;5132636;27;43929;-73
2022/04/28 03:21:30;;;;;;;2.23;2.23;;;18.80;65.00;;;;;;5121060;27;45019;-72
2022/04/28 03:23:58;;;;;;;2.20;2.20;;;18.70;65.00;;;;;;5111520;27;43994;-74
2022/04/28 03:26:26;;;;;;;2.43;2.43;;;18.70;65.10;;;;;;5124816;27;43948;-73
2022/04/28 03:28:55;;;;;;;2.50;2.50;;;18.70;66.20;;;;;;5144876;27;43879;-72
2022/04/28 03:31:24;;;;;;;2.57;2.57;;;18.80;65.60;;;;;;5121809;27;44023;-73
2022/04/28 03:34:04;;;;;;;2.40;2.30;;;18.90;65.20;;;;;;5131512;27;43863;-73
2022/04/28 03:39:18;;;;;;;2.20;2.20;;;19.30;64.20;;;;;;5131903;27;43952;-73
2022/04/28 03:41:46;;;;;;;2.80;2.70;;;19.40;63.70;;;;;;5151063;27;44834;-71
2022/04/28 03:44:16;;;;;;;2.60;2.50;;;19.40;63.60;;;;;;5131224;27;43858;-73
2022/04/28 03:46:45;;;;;;;2.43;2.20;;;19.30;63.50;;;;;;5131835;27;43422;-72
2022/04/28 03:49:13;;;;;;;2.40;2.30;;;19.20;63.70;;;;;;5131763;27;43945;-72
2022/04/28 03:51:41;;;;;;;2.67;2.47;;;19.10;64.00;;;;;;5131619;27;45802;-72
2022/04/28 03:54:09;;;;;;;2.50;2.50;;;19.00;64.20;;;;;;5131173;27;44176;-72
2022/04/28 03:56:38;;;;;;;2.77;2.67;;;18.90;64.30;;;;;;5131167;27;43943;-73
2022/04/28 03:59:09;;;;;;;2.83;2.67;;;18.90;64.60;;;;;;5131704;27;43970;-73
2022/04/28 04:02:05;;;;;;;3.13;2.93;;;18.80;64.80;;;;;;5116808;27;43741;-73
2022/04/28 04:04:33;;;;;;;3.70;3.40;;;18.80;65.40;;;;;;5130550;27;44246;-73
2022/04/28 04:07:06;;;;;;;3.17;2.97;;;18.80;65.40;;;;;;5131074;27;44381;-73
2022/04/28 04:09:36;;;;;;;3.37;3.07;;;19.00;65.10;;;;;;5147365;27;44425;-73
2022/04/28 04:12:10;;;;;;;3.40;3.20;;;19.10;64.70;;;;;;5130848;27;44049;-73
2022/04/28 04:14:56;;;;;;;2.87;2.70;;;19.10;64.30;;;;;;5143712;27;43756;-72
2022/04/28 04:17:31;;;;;;;3.37;3.17;;;19.00;64.30;;;;;;5131201;27;44117;-72
2022/04/28 04:20:03;;;;;;;3.27;3.00;;;19.00;64.50;;;;;;5132031;27;44028;-72
2022/04/28 04:22:32;;;;;;;3.13;2.97;;;18.90;64.60;;;;;;5131146;27;43928;-73
2022/04/28 04:25:03;;;;;;;3.20;3.00;;;18.80;64.80;;;;;;5131679;27;44875;-72
2022/04/28 04:27:32;;;;;;;3.27;3.00;;;18.80;65.10;;;;;;5131144;27;44187;-73
2022/04/28 04:33:00;;;;;;;3.40;3.17;;;18.70;65.30;;;;;;5131124;27;46839;-73
2022/04/28 04:35:30;;;;;;;27.40;4.33;;;18.70;65.40;;;;;;5124254;27;44374;-73
2022/04/28 04:38:00;;;;;;;22.60;4.03;;;18.60;65.20;;;;;;5131309;27;43917;-73
2022/04/28 04:40:29;;;;;;;14.03;3.50;;;18.70;65.40;;;;;;5131226;27;44045;-74
2022/04/28 04:42:58;;;;;;;9.20;3.73;;;18.80;65.20;;;;;;5130847;27;44793;-72
2022/04/28 04:45:26;;;;;;;4.30;3.33;;;19.00;64.90;;;;;;5130940;27;44026;-72
2022/04/28 04:48:13;;;;;;;8.17;3.60;;;19.20;64.40;;;;;;5131073;27;44013;-72
2022/04/28 04:50:48;;;;;;;5.97;3.47;;;19.30;64.00;;;;;;5131515;27;44030;-72
2022/04/28 04:53:23;;;;;;;4.40;3.20;;;19.30;63.80;;;;;;5130581;27;44016;-73
2022/04/28 04:55:52;;;;;;;8.97;3.70;;;19.20;63.70;;;;;;5130768;27;44714;-73
2022/04/28 04:58:20;;;;;;;5.40;3.20;;;19.10;63.70;;;;;;5130664;27;44001;-73
2022/04/28 05:00:48;;;;;;;4.07;3.23;;;19.00;64.10;;;;;;5131280;27;44867;-73
2022/04/28 05:03:24;;;;;;;3.70;3.40;;;18.90;64.30;;;;;;5145762;27;43737;-72
2022/04/28 05:06:10;;;;;;;3.80;3.03;;;18.90;64.60;;;;;;5142107;27;43947;-73
2022/04/28 05:08:43;;;;;;;3.93;3.17;;;18.80;64.80;;;;;;5130767;27;43991;-73
2022/04/28 05:11:12;;;;;;;7.87;3.33;;;18.80;65.00;;;;;;5130835;27;44324;-72
2022/04/28 05:13:58;;;;;;;7.20;3.63;;;18.70;65.40;;;;;;5130536;27;46722;-72
2022/04/28 05:16:26;;;;;;;4.10;3.40;;;18.90;65.30;;;;;;5148374;27;43947;-72
2022/04/28 05:19:11;;;;;;;3.57;3.27;;;19.10;65.10;;;;;;5129900;27;44050;-73
2022/04/28 05:22:03;;;;;;;4.03;3.47;;;19.20;64.50;;;;;;5137539;27;43504;-72
2022/04/28 05:25:06;;;;;;;8.90;4.10;;;19.30;64.10;;;;;;5147714;27;44453;-73
2022/04/28 05:27:52;;;;;;;3.37;3.20;;;19.30;63.90;;;;;;5145630;27;43414;-73
2022/04/28 05:30:39;;;;;;;3.10;2.93;;;19.20;63.90;;;;;;5145994;27;44016;-72
2022/04/28 05:33:26;;;;;;;4.10;3.10;;;19.10;64.10;;;;;;5145668;27;43339;-73
2022/04/28 05:36:12;;;;;;;3.03;2.83;;;18.90;64.30;;;;;;5129558;27;44141;-72
2022/04/28 05:38:40;;;;;;;3.17;2.97;;;18.90;64.60;;;;;;5148636;27;43934;-73
2022/04/28 05:41:08;;;;;;;3.60;3.30;;;18.80;64.70;;;;;;5129856;27;44040;-74
2022/04/28 05:46:37;;;;;;;4.00;3.30;;;18.70;65.00;;;;;;5083548;28;43907;-73
2022/04/28 05:49:06;;;;;;;4.40;3.30;;;18.80;65.60;;;;;;5084379;28;43383;-72
2022/04/28 05:51:35;;;;;;;3.50;3.30;;;18.90;65.30;;;;;;5113166;27;44319;-73
2022/04/28 05:54:04;;;;;;;3.93;3.60;;;19.10;65.00;;;;;;5129946;27;44004;-72
2022/04/28 05:56:32;;;;;;;3.33;3.13;;;19.20;64.30;;;;;;5129074;27;44181;-72
2022/04/28 05:59:02;;;;;;;3.67;3.37;;;19.30;64.10;;;;;;5129298;27;45063;-73
2022/04/28 06:01:45;;;;;;;3.33;2.50;;;19.20;63.90;;;;;;5144820;27;43884;-72
2022/04/28 06:04:17;;;;;;;3.20;3.00;;;19.10;63.80;;;;;;5123910;27;43956;-73
2022/04/28 06:06:50;;;;;;;4.00;3.30;;;19.00;63.90;;;;;;5129219;27;44165;-72
2022/04/28 06:09:25;;;;;;;2.90;2.70;;;18.90;64.10;;;;;;5128568;27;43465;-73
2022/04/28 06:11:53;;;;;;;3.40;3.20;;;18.90;64.40;;;;;;5129352;27;44002;-71
2022/04/28 06:14:21;;;;;;;3.20;3.00;;;18.80;64.60;;;;;;5148004;27;43844;-71
2022/04/28 06:17:27;;;;;;;3.43;3.23;;;18.80;64.70;;;;;;5062879;28;43933;-73
2022/04/28 06:19:55;;;;;;;3.60;3.40;;;18.70;64.80;;;;;;5063096;28;44686;-73
2022/04/28 06:22:47;;;;;;;3.60;3.27;;;18.70;65.20;;;;;;5115195;27;44007;-73
2022/04/28 06:25:15;;;;;;;3.30;3.10;;;18.80;65.20;;;;;;5129271;27;44260;-73
2022/04/28 06:27:47;;;;;;;3.23;3.10;;;19.00;64.90;;;;;;5129105;27;45464;-73
2022/04/28 06:30:15;;;;;;;2.87;2.77;;;19.10;64.20;;;;;;5130611;27;43866;-72
2022/04/28 06:32:44;;;;;;;3.17;2.97;;;19.20;63.70;;;;;;5133073;27;43886;-72
2022/04/28 06:36:11;;;;;;;3.13;3.00;;;19.30;63.50;;;;;;5132216;27;43909;-73
2022/04/28 06:38:46;;;;;;;3.17;2.90;;;19.20;63.50;;;;;;5132867;27;46076;-72
2022/04/28 06:41:14;;;;;;;3.27;3.07;;;19.10;63.60;;;;;;5132143;27;44564;-73
2022/04/28 06:43:49;;;;;;;2.90;2.70;;;19.00;63.80;;;;;;5132631;27;43444;-72
2022/04/28 06:46:46;;;;;;;2.47;2.40;;;18.90;64.00;;;;;;5151433;27;43440;-73
2022/04/28 06:49:13;;;;;;;2.73;2.63;;;18.80;64.20;;;;;;5147726;27;43974;-73
2022/04/28 06:51:56;;;;;;;2.97;2.87;;;18.80;64.40;;;;;;5147823;27;43933;-73
2022/04/28 06:54:44;;;;;;;3.00;2.90;;;18.80;64.60;;;;;;5144121;27;43806;-73
2022/04/28 06:57:16;;;;;;;3.17;3.03;;;18.70;64.90;;;;;;5132335;27;44082;-72
2022/04/28 06:59:44;;;;;;;3.47;3.17;;;18.80;65.10;;;;;;5132357;27;45672;-73
2022/04/28 07:02:17;;;;;;;2.80;2.70;;;18.90;64.60;;;;;;5131727;27;43973;-72
2022/04/28 07:04:47;;;;;;;2.90;2.73;;;19.10;64.20;;;;;;5132522;27;44098;-72
2022/04/28 07:07:19;;;;;;;3.10;2.83;;;19.30;63.70;;;;;;5132090;27;43427;-72
2022/04/28 07:09:50;;;;;;;2.80;2.70;;;19.30;63.20;;;;;;5132074;27;45069;-73
2022/04/28 07:12:36;;;;;;;2.83;2.73;;;19.30;63.10;;;;;;5131704;27;43962;-72
2022/04/28 07:15:05;;;;;;;2.70;2.60;;;19.20;63.20;;;;;;5148221;27;43447;-73
2022/04/28 07:17:33;;;;;;;2.93;2.83;;;19.10;63.40;;;;;;5150633;27;43929;-73
2022/04/28 07:20:02;;;;;;;2.67;2.57;;;19.00;63.60;;;;;;5131891;27;46497;-73
2022/04/28 07:22:31;;;;;;;2.60;2.50;;;18.90;63.90;;;;;;5131177;27;43413;-72
2022/04/28 07:25:00;;;;;;;2.70;2.60;;;18.90;64.10;;;;;;5151109;27;44052;-73
2022/04/28 07:27:29;;;;;;;2.80;2.70;;;18.80;64.30;;;;;;5131889;27;43852;-73
2022/04/28 07:30:06;;;;;;;2.90;2.70;;;18.80;64.50;;;;;;5132080;27;45719;-74
2022/04/28 07:32:40;;;;;;;2.73;2.53;;;18.80;65.00;;;;;;5131696;27;43774;-73
2022/04/28 07:35:16;;;;;;;2.70;2.50;;;18.90;65.60;;;;;;5149704;27;43947;-72
2022/04/28 07:38:03;;;;;;;2.73;2.63;;;19.00;64.50;;;;;;5147570;27;43950;-73
2022/04/28 07:40:36;;;;;;;2.60;2.50;;;19.10;64.20;;;;;;5146321;27;44527;-72
2022/04/28 07:43:10;;;;;;;2.60;2.40;;;19.10;64.00;;;;;;5131405;27;43908;-72
2022/04/28 07:45:40;;;;;;;2.50;2.40;;;19.00;63.90;;;;;;5131510;27;43869;-73
2022/04/28 07:48:17;;;;;;;2.80;2.67;;;19.00;64.10;;;;;;5131751;27;44285;-72
2022/04/28 07:50:46;;;;;;;2.87;2.60;;;18.90;64.40;;;;;;5131729;27;45802;-73
2022/04/28 07:53:23;;;;;;;2.80;2.60;;;18.80;64.50;;;;;;5130806;27;44041;-71
2022/04/28 07:56:13;;;;;;;2.30;2.20;;;18.80;64.80;;;;;;5131469;27;44085;-72
2022/04/28 07:58:42;;;;;;;2.90;2.77;;;18.70;64.80;;;;;;5140807;27;43489;-74
2022/04/28 08:01:25;;;;;;;2.23;2.23;;;18.70;65.10;;;;;;5148033;27;43924;-72
2022/04/28 08:03:54;;;;;;;2.60;2.50;;;18.70;65.10;;;;;;5130492;27;44716;-73
2022/04/28 08:06:23;;;;;;;2.50;2.40;;;18.70;65.40;;;;;;5130742;27;43409;-72
2022/04/28 08:08:51;;;;;;;2.57;2.37;;;18.70;65.40;;;;;;5131671;27;44047;-73
2022/04/28 08:11:21;;;;;;;2.43;2.33;;;18.90;65.10;;;;;;5130489;27;44089;-72
2022/04/28 08:13:50;;;;;;;2.57;2.30;;;19.10;64.60;;;;;;5130854;27;43994;-73
2022/04/28 08:16:24;;;;;;;2.60;2.40;;;19.30;64.10;;;;;;5130464;27;43934;-72
2022/04/28 08:18:52;;;;;;;2.50;2.40;;;19.30;64.30;;;;;;5131511;27;43797;-72
2022/04/28 08:21:39;;;;;;;2.57;2.47;;;19.30;63.50;;;;;;5130679;27;44323;-73
2022/04/28 08:24:07;;;;;;;2.50;2.40;;;19.20;63.60;;;;;;5130760;27;43978;-72
2022/04/28 08:26:37;;;;;;;2.20;2.10;;;19.20;63.80;;;;;;5130656;27;43359;-73
2022/04/28 08:29:05;;;;;;;2.67;2.50;;;19.10;64.10;;;;;;5131426;27;43529;-73
2022/04/28 08:31:38;;;;;;;2.20;2.10;;;19.00;64.30;;;;;;5130262;27;43818;-72
2022/04/28 08:34:06;;;;;;;2.57;2.47;;;18.90;64.50;;;;;;5130573;27;44007;-72
2022/04/28 08:36:34;;;;;;;2.47;2.37;;;18.90;64.70;;;;;;5130536;27;43381;-72
2022/04/28 08:39:05;;;;;;;2.40;2.30;;;18.80;64.90;;;;;;5131291;27;44036;-72
2022/04/28 08:41:35;;;;;;;2.60;2.50;;;18.80;65.30;;;;;;5130022;27;45162;-72
2022/04/28 08:44:38;;;;;;;2.17;2.10;;;18.80;65.30;;;;;;5130350;27;43884;-72
2022/04/28 08:47:19;;;;;;;2.30;2.20;;;19.00;64.90;;;;;;5130231;27;44061;-73
2022/04/28 08:50:07;;;;;;;2.83;2.43;;;19.10;64.50;;;;;;5130961;27;44010;-73
2022/04/28 08:53:02;;;;;;;2.37;2.27;;;19.10;64.30;;;;;;5129461;27;44049;-71
2022/04/28 08:55:34;;;;;;;2.30;2.20;;;19.00;64.20;;;;;;5129922;27;43931;-73
2022/04/28 08:58:02;;;;;;;2.43;2.33;;;18.90;64.40;;;;;;5130623;27;43854;-72
2022/04/28 09:00:37;;;;;;;2.30;2.20;;;18.90;64.70;;;;;;5130467;27;44035;-72
2022/04/28 09:03:23;;;;;;;2.37;2.27;;;18.80;64.90;;;;;;5145096;27;44516;-72
2022/04/28 09:06:17;;;;;;;2.17;2.10;;;18.80;65.10;;;;;;5146049;27;44000;-72
2022/04/28 09:09:05;;;;;;;2.37;2.27;;;18.70;65.10;;;;;;5146133;27;43368;-72
2022/04/28 09:11:54;;;;;;;2.00;2.00;;;18.70;65.30;;;;;;5106075;27;44077;-73
2022/04/28 09:14:42;;;;;;;2.50;2.30;;;18.70;65.40;;;;;;5145712;27;43987;-73
2022/04/28 09:17:16;;;;;;;2.53;2.00;;;18.70;65.70;;;;;;5129707;27;43955;-72
2022/04/28 09:19:49;;;;;;;2.10;2.00;;;18.80;65.50;;;;;;5129991;27;44047;-73
2022/04/28 09:22:25;;;;;;;2.10;2.10;;;19.00;65.10;;;;;;5129692;27;44036;-73
2022/04/28 09:24:59;;;;;;;2.00;2.00;;;19.20;64.50;;;;;;5129889;27;44058;-72
2022/04/28 09:27:29;;;;;;;2.37;2.30;;;19.30;63.90;;;;;;5129278;27;45016;-72
2022/04/28 09:29:58;;;;;;;2.10;2.10;;;19.40;63.70;;;;;;5129780;27;43364;-72
2022/04/28 09:32:29;;;;;;;2.17;2.07;;;19.30;63.70;;;;;;5129575;27;43445;-74
2022/04/28 09:35:35;;;;;;;2.30;2.20;;;19.20;63.70;;;;;;5147977;27;43965;-71
2022/04/28 09:38:09;;;;;;;2.27;2.17;;;19.10;64.10;;;;;;5129559;27;43416;-74
2022/04/28 09:43:43;;;;;;;2.37;2.27;;;18.90;64.50;;;;;;5109294;27;44198;-72
2022/04/28 09:46:14;;;;;;;2.30;2.20;;;18.90;64.90;;;;;;5102265;27;45364;-73
2022/04/28 09:48:44;;;;;;;3.73;2.70;;;18.80;65.00;;;;;;5109085;27;44077;-73
2022/04/28 09:51:25;;;;;;;3.60;2.17;;;18.80;65.30;;;;;;5108522;27;43986;-73
2022/04/28 09:54:09;;;;;;;2.37;2.27;;;18.80;65.30;;;;;;5109021;27;44271;-73
2022/04/28 09:56:46;;;;;;;2.30;2.10;;;19.00;65.10;;;;;;5108889;27;44078;-74
2022/04/28 09:59:18;;;;;;;2.30;2.20;;;19.10;64.60;;;;;;5107868;27;44466;-73
2022/04/28 10:01:47;;;;;;;2.77;2.13;;;19.10;64.30;;;;;;5102375;27;44060;-73
2022/04/28 10:04:16;;;;;;;1.97;1.97;;;19.10;64.40;;;;;;5102061;27;43989;-72
2022/04/28 10:07:06;;;;;;;2.40;2.30;;;19.00;64.50;;;;;;5111889;27;44000;-72
2022/04/28 10:09:37;;;;;;;2.27;2.17;;;18.90;64.70;;;;;;5108264;27;44003;-72
2022/04/28 10:12:09;;;;;;;2.40;2.20;;;18.80;64.90;;;;;;5108686;27;43430;-73
2022/04/28 10:14:57;;;;;;;2.47;2.20;;;18.80;65.10;;;;;;5084779;27;44180;-73
2022/04/28 10:17:28;;;;;;;2.10;2.00;;;18.80;65.30;;;;;;5108198;27;43897;-73
2022/04/28 10:19:59;;;;;;;2.50;2.30;;;18.70;65.30;;;;;;5108239;27;45082;-73
2022/04/28 10:22:49;;;;;;;2.43;2.23;;;18.70;65.50;;;;;;5108321;27;44029;-71
2022/04/28 10:34:11;;;;;;;2.80;2.13;;;19.10;64.90;;;;;;5127037;27;43941;-73
2022/04/28 10:36:54;;;;;;;5.13;2.40;;;19.30;64.40;;;;;;5127393;27;43992;-73
2022/04/28 10:39:39;;;;;;;2.87;2.57;;;19.30;64.00;;;;;;5126420;27;44063;-72
2022/04/28 10:42:13;;;;;;;2.50;2.10;;;19.30;63.90;;;;;;5126824;27;43892;-72
2022/04/28 10:44:49;;;;;;;2.07;1.97;;;19.20;64.10;;;;;;5108264;27;44062;-73
2022/04/28 10:47:22;;;;;;;2.10;2.00;;;19.10;64.40;;;;;;5127587;27;43877;-73
2022/04/28 10:49:53;;;;;;;2.10;2.00;;;19.00;64.60;;;;;;5126857;27;44829;-72
2022/04/28 10:52:23;;;;;;;3.10;2.40;;;19.00;65.00;;;;;;5107296;27;45058;-72
2022/04/28 10:54:52;;;;;;;3.00;2.20;;;18.90;65.10;;;;;;5126779;27;44061;-73
2022/04/28 10:57:28;;;;;;;2.93;2.47;;;18.80;65.20;;;;;;5107920;27;43572;-73
2022/04/28 11:00:00;;;;;;;4.20;2.40;;;18.80;65.40;;;;;;5126430;27;43764;-73
2022/04/28 11:02:41;;;;;;;6.30;2.70;;;18.80;65.60;;;;;;5125754;27;43998;-73
2022/04/28 11:05:31;;;;;;;5.87;2.43;;;19.00;65.30;;;;;;5126696;27;43918;-72
2022/04/28 11:08:01;;;;;;;6.20;2.50;;;19.10;64.70;;;;;;5121608;27;43911;-73
2022/04/28 11:10:29;;;;;;;3.30;2.50;;;19.10;64.50;;;;;;5125537;27;44935;-72
2022/04/28 11:12:57;;;;;;;3.27;2.23;;;19.10;64.60;;;;;;5126465;27;43983;-72
2022/04/28 11:15:27;;;;;;;2.50;2.40;;;19.00;64.70;;;;;;5126695;27;43970;-72
2022/04/28 11:17:55;;;;;;;2.83;2.50;;;18.90;64.80;;;;;;5131145;27;43966;-72
2022/04/28 11:20:23;;;;;;;3.33;2.33;;;18.90;65.10;;;;;;5129696;27;44002;-72
2022/04/28 11:23:03;;;;;;;3.50;2.57;;;18.80;65.30;;;;;;5111247;27;44046;-73
2022/04/28 11:25:31;;;;;;;2.23;2.10;;;18.80;65.40;;;;;;5129771;27;43895;-73
2022/04/28 11:28:00;;;;;;;2.87;2.50;;;18.80;65.60;;;;;;5111411;27;43478;-73
2022/04/28 11:30:29;;;;;;;3.00;2.40;;;18.80;65.60;;;;;;5110766;27;44157;-73
2022/04/28 11:32:58;;;;;;;3.30;2.37;;;18.70;65.70;;;;;;5110605;27;44694;-73
2022/04/28 11:35:31;;;;;;;3.87;2.17;;;18.70;65.80;;;;;;5122321;27;43379;-73
2022/04/28 11:38:00;;;;;;;2.50;2.30;;;18.90;65.70;;;;;;5130310;27;44021;-73
2022/04/28 11:40:33;;;;;;;3.90;2.40;;;19.00;65.30;;;;;;5129562;27;43888;-73
2022/04/28 11:43:04;;;;;;;3.13;2.10;;;19.20;64.80;;;;;;5110832;27;45047;-73
2022/04/28 11:45:32;;;;;;;5.33;2.40;;;19.30;64.20;;;;;;5129197;27;43944;-74
2022/04/28 11:48:01;;;;;;;2.50;2.30;;;19.40;64.00;;;;;;5130173;27;43921;-73
2022/04/28 11:50:30;;;;;;;2.47;2.27;;;19.30;63.80;;;;;;5129392;27;43913;-72
2022/04/28 11:53:00;;;;;;;2.83;2.10;;;19.30;63.90;;;;;;5129316;27;44006;-71
2022/04/28 11:55:30;;;;;;;2.40;2.30;;;19.20;64.30;;;;;;5129481;27;43753;-73
2022/04/28 11:57:58;;;;;;;2.07;2.07;;;19.10;64.60;;;;;;5130024;27;43414;-72
2022/04/28 12:00:26;;;;;;;2.10;2.00;;;19.00;64.80;;;;;;5109818;27;46127;-73
2022/04/28 12:02:54;;;;;;;3.03;2.10;;;19.00;65.00;;;;;;5129315;27;43949;-72
2022/04/28 12:05:25;;;;;;;2.50;2.30;;;18.90;65.10;;;;;;5110518;27;44083;-72
2022/04/28 12:07:53;;;;;;;2.50;2.30;;;18.90;65.00;;;;;;5129849;27;43996;-72
2022/04/28 12:15:58;;;;;;;2.30;2.30;;;19.10;64.80;;;;;;5129088;27;43869;-72
2022/04/28 12:21:17;;;;;;;2.60;2.40;;;19.10;64.30;;;;;;5128879;27;44002;-73
2022/04/28 12:23:47;;;;;;;2.40;2.30;;;19.00;64.60;;;;;;5110394;27;44648;-73
2022/04/28 12:26:15;;;;;;;2.13;2.03;;;19.00;64.90;;;;;;5128746;27;44074;-72
2022/04/28 12:28:44;;;;;;;1.90;1.90;;;18.90;65.00;;;;;;5128625;27;43903;-74
2022/04/28 12:31:13;;;;;;;2.10;2.00;;;18.90;65.20;;;;;;5128582;27;44105;-72
2022/04/28 12:34:10;;;;;;;2.00;2.00;;;18.80;65.30;;;;;;5128441;27;44072;-72
2022/04/28 12:36:48;;;;;;;2.03;1.93;;;18.80;65.50;;;;;;5128502;27;44016;-72
2022/04/28 12:39:17;;;;;;;1.90;1.90;;;18.80;65.50;;;;;;5128923;27;43990;-73
2022/04/28 12:41:46;;;;;;;2.10;2.10;;;18.80;65.30;;;;;;5129094;27;44004;-73
2022/04/28 12:44:16;;;;;;;1.80;1.80;;;18.80;65.70;;;;;;5128868;27;43991;-73
2022/04/28 12:46:45;;;;;;;2.10;2.00;;;18.90;65.60;;;;;;5110027;27;44053;-73
2022/04/28 12:49:13;;;;;;;2.10;2.00;;;19.10;65.10;;;;;;5129111;27;43955;-73
2022/04/28 12:51:44;;;;;;;1.80;1.80;;;19.20;64.60;;;;;;5109970;27;45361;-72
2022/04/28 12:54:13;;;;;;;1.83;1.83;;;19.40;64.10;;;;;;5109618;27;44496;-73
2022/04/28 12:56:43;;;;;;;1.97;1.97;;;19.40;63.80;;;;;;5128679;27;44191;-74
2022/04/28 12:59:13;;;;;;;1.80;1.80;;;19.30;63.70;;;;;;5128585;27;44041;-72
2022/04/28 13:01:43;;;;;;;1.70;1.67;;;19.30;64.10;;;;;;5128323;27;44011;-72
2022/04/28 13:04:14;;;;;;;1.70;1.70;;;19.20;64.30;;;;;;5128155;27;43912;-72
2022/04/28 13:06:43;;;;;;;2.63;1.97;;;19.10;64.50;;;;;;5128570;27;43455;-73
2022/04/28 13:09:11;;;;;;;2.00;1.90;;;19.00;64.40;;;;;;5122210;27;43449;-73
2022/04/28 13:11:40;;;;;;;1.87;1.80;;;18.90;64.60;;;;;;5127933;27;44469;-73
2022/04/28 13:14:10;;;;;;;2.60;2.00;;;18.90;64.30;;;;;;5128108;27;44005;-73
2022/04/28 13:16:38;;;;;;;2.50;2.30;;;18.80;62.40;;;;;;5127880;27;43904;-73
2022/04/28 13:19:10;;;;;;;2.07;2.00;;;18.80;59.80;;;;;;5128650;27;43922;-73
2022/04/28 13:21:39;;;;;;;2.57;2.33;;;18.90;60.90;;;;;;5127983;27;44178;-73
2022/04/28 13:24:08;;;;;;;2.20;2.10;;;19.10;61.30;;;;;;5128095;27;44138;-73
2022/04/28 13:26:36;;;;;;;2.00;1.93;;;19.10;61.20;;;;;;5108820;27;43939;-72
2022/04/28 13:29:04;;;;;;;2.03;2.03;;;19.10;61.40;;;;;;5128551;27;43987;-72
2022/04/28 13:31:32;;;;;;;2.00;2.00;;;19.00;61.40;;;;;;5127172;27;44373;-73
2022/04/28 13:34:00;;;;;;;2.27;1.90;;;18.90;61.70;;;;;;5120992;27;44019;-73
2022/04/28 13:36:29;;;;;;;2.00;2.00;;;18.90;62.00;;;;;;5106535;27;43879;-73
2022/04/28 13:38:57;;;;;;;1.83;1.83;;;18.80;62.30;;;;;;5106724;27;44002;-72
2022/04/28 13:41:29;;;;;;;1.90;1.90;;;18.80;62.50;;;;;;5106300;27;43988;-73
2022/04/28 13:43:57;;;;;;;3.30;1.97;;;18.80;62.70;;;;;;5107175;27;44094;-73
2022/04/28 13:46:25;;;;;;;2.20;2.10;;;18.80;62.90;;;;;;5104876;27;44035;-73
2022/04/28 13:48:53;;;;;;;2.30;2.10;;;18.70;62.90;;;;;;5107314;27;44184;-73
2022/04/28 13:51:21;;;;;;;2.37;2.27;;;18.70;63.10;;;;;;5106573;27;43911;-72
2022/04/28 13:53:50;;;;;;;2.40;2.20;;;18.80;63.30;;;;;;5106251;27;44041;-73
2022/04/28 13:56:18;;;;;;;2.33;2.23;;;18.90;63.10;;;;;;5087716;27;43611;-73
2022/04/28 13:58:46;;;;;;;1.87;1.77;;;19.10;62.90;;;;;;5107296;27;43943;-72